createdAt,value
2023-05-21T00:01:38.049Z,87.60
2023-05-21T00:03:42.550Z,87.47
2023-05-21T00:05:47.395Z,88.14
2023-05-21T00:07:53.667Z,87.69
2023-05-21T00:09:58.076Z,88.17
2023-05-21T00:12:01.358Z,87.50
2023-05-21T00:14:04.373Z,87.35
2023-05-21T00:16:08.224Z,87.75
2023-05-21T00:18:11.416Z,87.54
2023-05-21T00:20:14.583Z,87.53
2023-05-21T00:22:17.555Z,88.31
2023-05-21T00:24:20.807Z,88.44
2023-05-21T00:26:25.559Z,87.47
2023-05-21T00:28:33.108Z,88.31
2023-05-21T00:30:36.164Z,88.90
2023-05-21T00:32:39.235Z,88.53
2023-05-21T00:34:42.614Z,88.07
2023-05-21T00:36:46.083Z,88.02
2023-05-21T00:38:49.094Z,88.11
2023-05-21T00:40:52.349Z,88.27
2023-05-21T00:42:57.692Z,89.46
2023-05-21T00:45:00.994Z,88.29
2023-05-21T00:47:05.071Z,89.26
2023-05-21T00:49:08.500Z,88.80
2023-05-21T00:51:11.632Z,89.22
2023-05-21T00:53:15.736Z,89.12
2023-05-21T00:55:18.676Z,89.22
2023-05-21T00:57:23.775Z,89.38
2023-05-21T00:59:28.442Z,89.83
2023-05-21T01:01:34.277Z,89.73
2023-05-21T01:03:38.979Z,90.17
2023-05-21T01:05:45.667Z,89.85
2023-05-21T01:07:49.252Z,90.54
2023-05-21T01:09:52.722Z,89.59
2023-05-21T01:11:56.772Z,89.92
2023-05-21T01:13:59.973Z,89.31
2023-05-21T01:16:07.213Z,90.17
2023-05-21T01:18:10.433Z,89.57
2023-05-21T01:20:14.901Z,89.22
2023-05-21T01:22:21.693Z,89.88
2023-05-21T01:24:26.250Z,89.95
2023-05-21T01:26:30.743Z,90.45
2023-05-21T01:28:34.969Z,89.80
2023-05-21T01:30:39.881Z,90.34
2023-05-21T01:32:50.071Z,90.56
2023-05-21T01:35:00.839Z,90.87
2023-05-21T01:37:13.552Z,90.84
2023-05-21T01:39:21.544Z,91.25
2023-05-21T01:41:27.995Z,90.65
2023-05-21T01:43:34.551Z,91.63
2023-05-21T01:45:40.139Z,91.26
2023-05-21T01:47:45.697Z,91.44
2023-05-21T01:49:48.522Z,91.66
2023-05-21T01:51:51.971Z,91.70
2023-05-21T01:53:54.983Z,91.24
2023-05-21T01:55:58.014Z,92.07
2023-05-21T01:58:02.723Z,91.04
2023-05-21T02:00:08.636Z,91.09
2023-05-21T02:02:18.296Z,91.81
2023-05-21T02:04:21.523Z,91.23
2023-05-21T02:06:24.819Z,91.93
2023-05-21T02:08:28.217Z,91.99
2023-05-21T02:10:31.175Z,91.13
2023-05-21T02:12:34.315Z,91.42
2023-05-21T02:14:39.200Z,91.34
2023-05-21T02:16:42.618Z,91.11
2023-05-21T02:18:46.771Z,91.53
2023-05-21T02:20:49.952Z,91.56
2023-05-21T02:22:53.016Z,91.96
2023-05-21T02:24:55.997Z,91.83
2023-05-21T02:26:59.101Z,92.28
2023-05-21T02:29:02.227Z,92.61
2023-05-21T02:31:06.644Z,92.45
2023-05-21T02:33:09.971Z,92.07
2023-05-21T02:35:13.786Z,91.64
2023-05-21T02:37:17.960Z,92.36
2023-05-21T02:39:21.418Z,92.73
2023-05-21T02:41:24.388Z,92.44
2023-05-21T02:43:27.506Z,92.89
2023-05-21T02:45:30.890Z,93.02
2023-05-21T02:47:35.731Z,93.42
2023-05-21T02:49:38.945Z,92.20
2023-05-21T02:51:41.897Z,92.74
2023-05-21T02:53:44.935Z,92.09
2023-05-21T02:55:47.986Z,92.50
2023-05-21T02:57:50.962Z,92.89
2023-05-21T02:59:53.973Z,93.19
2023-05-21T03:01:57.063Z,92.96
2023-05-21T03:04:02.197Z,93.33
2023-05-21T03:06:05.343Z,92.75
2023-05-21T03:08:08.300Z,92.77
2023-05-21T03:10:11.880Z,92.89
2023-05-21T03:12:14.920Z,93.12
2023-05-21T03:14:18.016Z,93.28
2023-05-21T03:16:20.992Z,93.10
2023-05-21T03:18:23.954Z,93.58
2023-05-21T03:20:29.250Z,93.96
2023-05-21T03:22:32.824Z,94.34
2023-05-21T03:24:37.076Z,94.00
2023-05-21T03:26:41.794Z,94.78
2023-05-21T03:28:45.263Z,93.97
2023-05-21T03:30:49.994Z,94.11
2023-05-21T03:33:11.607Z,93.97
2023-05-21T03:35:15.477Z,93.60
2023-05-21T03:37:19.908Z,93.88
2023-05-21T03:39:23.479Z,93.85
2023-05-21T03:41:26.807Z,93.53
2023-05-21T03:43:36.169Z,93.77
2023-05-21T03:45:40.374Z,94.00
2023-05-21T03:48:07.688Z,93.61
2023-05-21T03:50:11.636Z,94.08
2023-05-21T03:52:15.205Z,93.26
2023-05-21T03:54:19.584Z,94.08
2023-05-21T03:56:23.448Z,93.86
2023-05-21T03:58:27.158Z,93.61
2023-05-21T04:00:32.923Z,93.18
2023-05-21T04:02:36.208Z,94.08
2023-05-21T04:04:39.315Z,93.52
2023-05-21T04:06:44.864Z,93.70
2023-05-21T04:08:48.885Z,92.83
2023-05-21T04:10:53.300Z,92.97
2023-05-21T04:12:56.300Z,93.33
2023-05-21T04:14:59.178Z,92.52
2023-05-21T04:17:05.575Z,92.83
2023-05-21T04:19:09.547Z,92.69
2023-05-21T04:21:13.374Z,92.54
2023-05-21T04:23:16.707Z,93.29
2023-05-21T04:25:23.494Z,93.38
2023-05-21T04:27:28.242Z,93.85
2023-05-21T04:29:31.365Z,93.12
2023-05-21T04:31:34.703Z,93.02
2023-05-21T04:33:42.426Z,92.81
2023-05-21T04:35:46.677Z,93.61
2023-05-21T04:37:50.836Z,92.94
2023-05-21T04:39:53.916Z,93.79
2023-05-21T04:41:57.013Z,93.57
2023-05-21T04:44:02.739Z,93.28
2023-05-21T04:46:07.987Z,93.46
2023-05-21T04:48:10.984Z,93.58
2023-05-21T04:50:14.642Z,93.55
2023-05-21T04:52:17.834Z,94.19
2023-05-21T04:54:20.936Z,93.77
2023-05-21T04:56:24.119Z,93.86
2023-05-21T04:58:28.216Z,94.47
2023-05-21T05:00:32.991Z,94.39
2023-05-21T05:02:36.480Z,93.36
2023-05-21T05:04:39.439Z,94.60
2023-05-21T05:06:42.466Z,93.82
2023-05-21T05:08:46.616Z,94.25
2023-05-21T05:10:51.403Z,93.81
2023-05-21T05:12:54.561Z,94.32
2023-05-21T05:14:57.782Z,93.79
2023-05-21T05:17:02.400Z,94.38
2023-05-21T05:19:05.442Z,93.68
2023-05-21T05:21:08.395Z,93.17
2023-05-21T05:23:11.527Z,93.83
2023-05-21T05:25:15.909Z,92.50
2023-05-21T05:27:19.060Z,92.14
2023-05-21T05:29:22.100Z,91.37
2023-05-21T05:31:25.372Z,91.98
2023-05-21T05:33:30.883Z,89.45
2023-05-21T05:35:34.197Z,88.69
2023-05-21T05:37:37.590Z,88.75
2023-05-21T05:39:42.013Z,90.17
2023-05-21T05:41:45.050Z,88.61
2023-05-21T05:43:48.357Z,89.27
2023-05-21T05:45:52.838Z,88.09
2023-05-21T05:47:56.022Z,86.31
2023-05-21T05:50:00.585Z,85.86
2023-05-21T05:52:03.746Z,81.75
2023-05-21T05:54:06.971Z,83.34
2023-05-21T05:56:11.738Z,82.31
2023-05-21T05:58:15.289Z,82.33
2023-05-21T06:00:27.246Z,81.00
2023-05-21T06:02:30.587Z,79.80
2023-05-21T06:04:33.837Z,79.52
2023-05-21T06:06:39.292Z,73.46
2023-05-21T06:08:41.911Z,72.70
2023-05-21T06:10:44.795Z,71.90
2023-05-21T06:12:48.254Z,71.74
2023-05-21T06:14:51.716Z,70.14
2023-05-21T06:16:56.465Z,70.14
2023-05-21T06:19:00.042Z,67.73
2023-05-21T06:21:03.084Z,68.90
2023-05-21T06:23:09.205Z,64.78
2023-05-21T06:25:12.902Z,67.18
2023-05-21T06:27:16.296Z,65.60
2023-05-21T06:29:20.202Z,68.05
2023-05-21T06:31:23.694Z,64.70
2023-05-21T06:33:27.936Z,63.41
2023-05-21T06:35:31.198Z,62.02
2023-05-21T06:37:35.280Z,63.08
2023-05-21T06:39:39.976Z,59.63
2023-05-21T06:41:42.948Z,61.13
2023-05-21T06:44:15.995Z,59.68
2023-05-21T06:46:45.319Z,59.29
2023-05-21T06:48:48.293Z,55.09
2023-05-21T06:50:51.758Z,53.50
2023-05-21T06:52:54.726Z,52.78
2023-05-21T06:54:59.286Z,55.18
2023-05-21T06:57:06.356Z,52.89
2023-05-21T06:59:09.415Z,51.18
2023-05-21T07:01:13.570Z,52.64
2023-05-21T07:03:17.724Z,54.08
2023-05-21T07:05:21.177Z,56.85
2023-05-21T07:07:24.233Z,57.07
2023-05-21T07:09:27.397Z,56.31
2023-05-21T07:11:31.963Z,55.70
2023-05-21T07:13:36.473Z,56.52
2023-05-21T07:15:39.671Z,55.50
2023-05-21T07:17:42.988Z,57.18
2023-05-21T07:19:46.037Z,56.05
2023-05-21T07:21:50.185Z,52.06
2023-05-21T07:23:53.464Z,51.34
2023-05-21T07:25:56.582Z,51.33
2023-05-21T07:28:01.314Z,49.73
2023-05-21T07:30:04.765Z,51.70
2023-05-21T07:32:08.654Z,52.75
2023-05-21T07:34:12.063Z,52.31
2023-05-21T07:36:16.814Z,53.31
2023-05-21T07:38:20.652Z,54.47
2023-05-21T07:40:23.943Z,53.07
2023-05-21T07:42:27.171Z,53.36
2023-05-21T07:44:33.820Z,51.19
2023-05-21T07:46:37.413Z,49.05
2023-05-21T07:48:40.615Z,49.94
2023-05-21T07:50:43.864Z,49.22
2023-05-21T07:52:46.988Z,50.67
2023-05-21T07:54:49.997Z,51.32
2023-05-21T07:56:53.259Z,47.94
2023-05-21T07:59:17.929Z,47.35
2023-05-21T08:01:22.763Z,47.29
2023-05-21T08:03:28.609Z,46.37
2023-05-21T08:05:32.866Z,47.04
2023-05-21T08:07:35.835Z,47.49
2023-05-21T08:09:38.890Z,46.99
2023-05-21T08:11:43.301Z,44.15
2023-05-21T08:13:46.442Z,44.37
2023-05-21T08:15:52.696Z,44.78
2023-05-21T08:17:58.833Z,45.71
2023-05-21T08:20:02.376Z,48.89
2023-05-21T08:22:06.996Z,46.54
2023-05-21T08:24:13.237Z,45.81
2023-05-21T08:26:19.266Z,46.51
2023-05-21T08:28:23.367Z,44.89
2023-05-21T08:30:27.975Z,44.74
2023-05-21T08:32:31.346Z,44.77
2023-05-21T08:34:36.115Z,45.53
2023-05-21T08:37:01.702Z,45.60
2023-05-21T08:39:27.407Z,46.57
2023-05-21T08:41:33.846Z,46.86
2023-05-21T08:43:38.728Z,45.77
2023-05-21T08:45:45.441Z,43.14
2023-05-21T08:47:55.262Z,43.07
2023-05-21T08:50:01.283Z,43.77
2023-05-21T08:52:06.574Z,41.33
2023-05-21T08:54:09.872Z,43.23
2023-05-21T08:56:15.754Z,43.37
2023-05-21T08:58:25.387Z,44.65
2023-05-21T09:00:29.581Z,44.35
2023-05-21T09:02:34.765Z,44.02
2023-05-21T09:04:39.308Z,42.59
2023-05-21T09:06:44.405Z,42.02
2023-05-21T09:08:54.715Z,43.42
2023-05-21T09:11:05.652Z,41.29
2023-05-21T09:13:15.687Z,42.89
2023-05-21T09:15:19.150Z,42.05
2023-05-21T09:17:22.222Z,44.21
2023-05-21T09:19:35.140Z,40.60
2023-05-21T09:21:39.973Z,43.22
2023-05-21T09:24:04.955Z,43.23
2023-05-21T09:26:13.073Z,42.54
2023-05-21T09:28:17.353Z,40.56
2023-05-21T09:30:24.059Z,41.98
2023-05-21T09:32:29.335Z,40.71
2023-05-21T09:34:36.576Z,40.88
2023-05-21T09:36:39.555Z,39.31
2023-05-21T09:38:42.514Z,40.45
2023-05-21T09:40:47.192Z,39.49
2023-05-21T09:42:53.341Z,42.69
2023-05-21T09:44:56.510Z,41.10
2023-05-21T09:47:00.205Z,42.41
2023-05-21T09:49:03.288Z,42.18
2023-05-21T09:51:11.410Z,38.72
2023-05-21T09:53:16.891Z,40.27
2023-05-21T09:55:22.985Z,42.37
2023-05-21T09:57:27.595Z,38.98
2023-05-21T09:59:37.401Z,40.74
2023-05-21T10:01:40.573Z,38.18
2023-05-21T10:03:49.913Z,37.64
2023-05-21T10:05:54.280Z,40.86
2023-05-21T10:08:01.197Z,39.12
2023-05-21T10:10:07.183Z,39.01
2023-05-21T10:12:11.256Z,40.29
2023-05-21T10:14:20.155Z,38.59
2023-05-21T10:16:24.255Z,39.57
2023-05-21T10:18:28.764Z,39.42
2023-05-21T10:20:32.327Z,39.68
2023-05-21T10:22:36.034Z,38.00
2023-05-21T10:24:41.034Z,38.76
2023-05-21T10:26:45.274Z,38.80
2023-05-21T10:28:49.244Z,39.86
2023-05-21T10:30:54.833Z,36.15
2023-05-21T10:32:58.987Z,36.46
2023-05-21T10:35:02.899Z,39.49
2023-05-21T10:37:09.803Z,40.55
2023-05-21T10:39:13.646Z,37.47
2023-05-21T10:41:19.575Z,38.75
2023-05-21T10:43:53.414Z,38.10
2023-05-21T10:46:29.452Z,37.99
2023-05-21T10:48:50.256Z,37.57
2023-05-21T10:51:13.853Z,35.65
2023-05-21T10:53:25.734Z,40.99
2023-05-21T10:55:43.451Z,37.37
2023-05-21T10:58:14.153Z,37.57
2023-05-21T11:00:20.930Z,40.48
2023-05-21T11:02:27.169Z,36.26
2023-05-21T11:04:30.336Z,35.47
2023-05-21T11:06:33.636Z,37.21
2023-05-21T11:08:37.899Z,36.88
2023-05-21T11:10:41.773Z,38.34
2023-05-21T11:13:06.533Z,38.53
2023-05-21T11:15:16.700Z,38.34
2023-05-21T11:17:39.335Z,35.30
2023-05-21T11:19:43.862Z,35.58
2023-05-21T11:21:51.697Z,38.00
2023-05-21T11:23:55.746Z,37.04
2023-05-21T11:26:02.564Z,36.43
2023-05-21T11:28:09.782Z,35.94
2023-05-21T11:30:16.703Z,33.65
2023-05-21T11:32:20.924Z,34.45
2023-05-21T11:34:29.004Z,34.41
2023-05-21T11:36:33.034Z,36.50
2023-05-21T11:38:38.487Z,35.52
2023-05-21T11:40:51.605Z,34.38
2023-05-21T11:42:56.315Z,34.73
2023-05-21T11:45:00.022Z,35.00
2023-05-21T11:47:03.636Z,33.91
2023-05-21T11:49:07.140Z,34.09
2023-05-21T11:51:11.791Z,33.17
2023-05-21T11:53:16.146Z,33.25
2023-05-21T11:55:23.015Z,31.99
2023-05-21T11:57:31.090Z,31.06
2023-05-21T11:59:34.794Z,33.21
2023-05-21T12:01:37.623Z,33.15
2023-05-21T12:03:41.397Z,33.54
2023-05-21T12:05:48.822Z,33.25
2023-05-21T12:07:54.931Z,29.55
2023-05-21T12:09:58.543Z,29.83
2023-05-21T12:12:02.496Z,32.45
2023-05-21T12:14:07.910Z,29.77
2023-05-21T12:16:11.242Z,34.37
2023-05-21T12:18:16.971Z,33.23
2023-05-21T12:20:20.347Z,31.11
2023-05-21T12:22:24.907Z,33.08
2023-05-21T12:24:29.645Z,34.68
2023-05-21T12:26:33.704Z,33.68
2023-05-21T12:28:37.666Z,35.89
2023-05-21T12:30:40.687Z,35.97
2023-05-21T12:32:46.979Z,34.89
2023-05-21T12:34:51.677Z,37.38
2023-05-21T12:36:54.747Z,34.60
2023-05-21T12:38:58.267Z,34.28
2023-05-21T12:41:06.487Z,35.91
2023-05-21T12:43:09.482Z,32.92
2023-05-21T12:45:13.202Z,33.62
2023-05-21T12:47:16.250Z,35.88
2023-05-21T12:49:32.804Z,37.04
2023-05-21T12:51:40.324Z,34.52
2023-05-21T12:53:43.968Z,34.67
2023-05-21T12:55:47.032Z,33.88
2023-05-21T12:58:00.465Z,34.21
2023-05-21T13:00:07.018Z,35.38
2023-05-21T13:02:13.660Z,35.65
2023-05-21T13:04:19.658Z,31.57
2023-05-21T13:06:22.888Z,33.92
2023-05-21T13:08:26.543Z,36.24
2023-05-21T13:10:30.202Z,32.92
2023-05-21T13:12:34.658Z,33.33
2023-05-21T13:14:39.696Z,33.86
2023-05-21T13:16:42.657Z,35.25
2023-05-21T13:18:45.760Z,34.34
2023-05-21T13:20:49.183Z,34.28
2023-05-21T13:22:52.604Z,36.60
2023-05-21T13:24:55.537Z,34.92
2023-05-21T13:26:58.584Z,32.27
2023-05-21T13:29:01.688Z,32.11
2023-05-21T13:31:06.375Z,34.74
2023-05-21T13:33:09.325Z,35.22
2023-05-21T13:35:12.617Z,34.49
2023-05-21T13:37:16.157Z,35.67
2023-05-21T13:39:19.676Z,36.18
2023-05-21T13:41:22.661Z,35.69
2023-05-21T13:43:25.801Z,33.66
2023-05-21T13:45:29.636Z,34.48
2023-05-21T13:47:36.183Z,35.21
2023-05-21T13:49:41.035Z,33.75
2023-05-21T13:51:43.998Z,33.65
2023-05-21T13:53:48.248Z,33.70
2023-05-21T13:55:51.237Z,36.18
2023-05-21T13:57:54.153Z,33.96
2023-05-21T13:59:57.472Z,34.09
2023-05-21T14:02:00.435Z,33.16
2023-05-21T14:04:06.030Z,34.97
2023-05-21T14:06:08.792Z,32.61
2023-05-21T14:08:12.893Z,33.44
2023-05-21T14:10:16.086Z,34.71
2023-05-21T14:12:19.499Z,34.12
2023-05-21T14:14:22.955Z,34.55
2023-05-21T14:16:27.754Z,33.81
2023-05-21T14:18:30.736Z,34.08
2023-05-21T14:20:35.229Z,34.02
2023-05-21T14:22:38.903Z,36.41
2023-05-21T14:24:41.991Z,34.60
2023-05-21T14:26:44.852Z,34.58
2023-05-21T14:28:47.932Z,35.10
2023-05-21T14:30:50.895Z,34.56
2023-05-21T14:32:55.463Z,36.64
2023-05-21T14:35:00.419Z,35.25
2023-05-21T14:37:05.506Z,37.52
2023-05-21T14:39:08.441Z,35.56
2023-05-21T14:41:11.512Z,37.02
2023-05-21T14:43:14.417Z,36.49
2023-05-21T14:45:19.192Z,37.54
2023-05-21T14:47:22.542Z,35.91
2023-05-21T14:49:25.594Z,35.13
2023-05-21T14:51:28.643Z,36.34
2023-05-21T14:53:33.062Z,37.73
2023-05-21T14:55:37.334Z,35.48
2023-05-21T14:57:40.712Z,36.25
2023-05-21T14:59:43.592Z,35.95
2023-05-21T15:01:46.931Z,36.53
2023-05-21T15:03:50.066Z,37.91
2023-05-21T15:05:53.229Z,36.31
2023-05-21T15:07:56.491Z,38.55
2023-05-21T15:10:01.004Z,36.16
2023-05-21T15:12:04.311Z,38.87
2023-05-21T15:14:07.296Z,36.56
2023-05-21T15:16:10.289Z,37.79
2023-05-21T15:18:13.456Z,38.51
2023-05-21T15:20:16.882Z,38.10
2023-05-21T15:22:20.073Z,38.68
2023-05-21T15:24:23.043Z,38.11
2023-05-21T15:26:27.515Z,38.38
2023-05-21T15:28:30.472Z,38.50
2023-05-21T15:30:33.436Z,37.71
2023-05-21T15:32:36.665Z,38.40
2023-05-21T15:34:39.697Z,39.07
2023-05-21T15:36:42.689Z,38.73
2023-05-21T15:38:45.982Z,39.32
2023-05-21T15:40:48.904Z,40.23
2023-05-21T15:42:53.664Z,39.19
2023-05-21T15:44:56.519Z,39.86
2023-05-21T15:46:59.527Z,38.91
2023-05-21T15:49:02.600Z,39.59
2023-05-21T15:51:05.796Z,39.47
2023-05-21T15:53:11.111Z,39.35
2023-05-21T15:55:14.462Z,40.37
2023-05-21T15:57:17.405Z,39.04
2023-05-21T15:59:21.985Z,40.06
2023-05-21T16:01:26.140Z,40.27
2023-05-21T16:03:29.259Z,40.09
2023-05-21T16:05:32.175Z,39.95
2023-05-21T16:07:37.055Z,40.33
2023-05-21T16:09:41.146Z,40.65
2023-05-21T16:11:49.134Z,40.30
2023-05-21T16:13:52.211Z,40.20
2023-05-21T16:15:56.666Z,41.65
2023-05-21T16:17:59.684Z,40.15
2023-05-21T16:20:02.645Z,40.63
2023-05-21T16:22:05.835Z,39.66
2023-05-21T16:24:09.242Z,42.19
2023-05-21T16:26:12.196Z,42.40
2023-05-21T16:28:15.276Z,41.45
2023-05-21T16:30:18.423Z,40.86
2023-05-21T16:32:23.168Z,42.71
2023-05-21T16:34:26.633Z,43.01
2023-05-21T16:36:29.668Z,42.06
2023-05-21T16:38:32.714Z,42.53
2023-05-21T16:40:35.763Z,42.87
2023-05-21T16:42:40.098Z,42.64
2023-05-21T16:44:43.135Z,42.05
2023-05-21T16:46:46.041Z,43.08
2023-05-21T16:48:50.523Z,44.48
2023-05-21T16:50:53.833Z,43.51
2023-05-21T16:52:56.825Z,45.83
2023-05-21T16:54:59.764Z,45.03
2023-05-21T16:57:02.723Z,45.63
2023-05-21T16:59:05.828Z,45.84
2023-05-21T17:01:08.989Z,46.09
2023-05-21T17:03:13.051Z,46.21
2023-05-21T17:05:17.839Z,46.04
2023-05-21T17:07:21.095Z,46.83
2023-05-21T17:09:24.268Z,46.03
2023-05-21T17:11:27.368Z,46.88
2023-05-21T17:13:30.363Z,46.90
2023-05-21T17:15:33.500Z,46.67
2023-05-21T17:17:36.582Z,47.17
2023-05-21T17:19:39.464Z,47.13
2023-05-21T17:21:43.997Z,48.18
2023-05-21T17:23:46.880Z,48.96
2023-05-21T17:25:50.135Z,48.78
2023-05-21T17:27:53.568Z,47.74
2023-05-21T17:29:57.565Z,49.04
2023-05-21T17:32:00.898Z,48.76
2023-05-21T17:34:04.113Z,48.89
2023-05-21T17:36:07.310Z,47.78
2023-05-21T17:38:12.291Z,50.02
2023-05-21T17:40:15.497Z,49.90
2023-05-21T17:42:18.898Z,49.51
2023-05-21T17:44:22.052Z,50.20
2023-05-21T17:46:24.927Z,51.68
2023-05-21T17:48:27.944Z,50.95
2023-05-21T17:50:30.934Z,53.46
2023-05-21T17:52:33.761Z,54.14
2023-05-21T17:54:38.111Z,54.05
2023-05-21T17:56:41.033Z,54.33
2023-05-21T17:58:43.893Z,56.15
2023-05-21T18:00:46.782Z,55.18
2023-05-21T18:02:49.691Z,56.22
2023-05-21T18:04:52.774Z,56.75
2023-05-21T18:06:56.206Z,56.61
2023-05-21T18:08:59.385Z,57.76
2023-05-21T18:11:03.931Z,58.84
2023-05-21T18:13:06.832Z,60.10
2023-05-21T18:15:10.502Z,59.30
2023-05-21T18:17:13.503Z,61.33
2023-05-21T18:19:16.651Z,60.40
2023-05-21T18:21:19.564Z,60.40
2023-05-21T18:23:22.554Z,62.61
2023-05-21T18:25:25.362Z,61.06
2023-05-21T18:27:29.802Z,62.42
2023-05-21T18:29:32.713Z,63.90
2023-05-21T18:31:36.048Z,63.19
2023-05-21T18:33:38.971Z,63.05
2023-05-21T18:35:42.246Z,63.28
2023-05-21T18:37:47.027Z,61.57
2023-05-21T18:39:50.102Z,61.97
2023-05-21T18:42:01.639Z,62.12
2023-05-21T18:44:16.452Z,64.18
2023-05-21T18:46:19.779Z,67.04
2023-05-21T18:48:22.991Z,68.12
2023-05-21T18:50:26.063Z,69.13
2023-05-21T18:52:29.171Z,70.10
2023-05-21T18:54:32.224Z,69.17
2023-05-21T18:56:35.199Z,68.51
2023-05-21T18:58:38.951Z,68.62
2023-05-21T19:00:43.677Z,68.63
2023-05-21T19:02:47.304Z,68.42
2023-05-21T19:04:50.562Z,67.67
2023-05-21T19:06:53.434Z,67.78
2023-05-21T19:08:56.404Z,68.59
2023-05-21T19:10:59.326Z,68.96
2023-05-21T19:13:03.365Z,70.26
2023-05-21T19:15:08.564Z,70.62
2023-05-21T19:17:13.953Z,72.09
2023-05-21T19:19:17.048Z,71.54
2023-05-21T19:21:20.267Z,72.90
2023-05-21T19:23:24.962Z,74.59
2023-05-21T19:25:28.025Z,74.50
2023-05-21T19:27:30.981Z,75.66
2023-05-21T19:29:34.246Z,74.59
2023-05-21T19:31:37.556Z,75.48
2023-05-21T19:33:42.131Z,73.96
2023-05-21T19:35:45.124Z,74.78
2023-05-21T19:37:48.097Z,76.05
2023-05-21T19:39:50.896Z,76.00
2023-05-21T19:41:53.936Z,74.83
2023-05-21T19:43:56.909Z,73.81
2023-05-21T19:45:59.906Z,75.59
2023-05-21T19:48:03.271Z,75.85
2023-05-21T19:50:09.741Z,76.30
2023-05-21T19:52:12.812Z,76.54
2023-05-21T19:54:15.955Z,76.83
2023-05-21T19:56:19.078Z,76.43
2023-05-21T19:58:27.235Z,76.71
2023-05-21T20:00:30.394Z,77.50
2023-05-21T20:02:34.887Z,76.23
2023-05-21T20:04:37.898Z,77.09
2023-05-21T20:06:42.478Z,76.87
2023-05-21T20:08:45.364Z,78.30
2023-05-21T20:10:51.357Z,78.44
2023-05-21T20:12:54.803Z,76.92
2023-05-21T20:14:59.756Z,77.89
2023-05-21T20:17:02.878Z,76.41
2023-05-21T20:19:06.139Z,76.62
2023-05-21T20:21:09.189Z,77.48
2023-05-21T20:23:14.139Z,78.97
2023-05-21T20:25:17.023Z,78.70
2023-05-21T20:27:20.322Z,78.79
2023-05-21T20:29:23.703Z,78.67
2023-05-21T20:31:27.739Z,79.26
2023-05-21T20:33:32.291Z,79.54
2023-05-21T20:35:35.393Z,80.80
2023-05-21T20:37:38.571Z,81.09
2023-05-21T20:39:45.484Z,79.88
2023-05-21T20:41:48.718Z,79.80
2023-05-21T20:43:52.678Z,79.05
2023-05-21T20:46:00.056Z,78.88
2023-05-21T20:48:03.823Z,80.39
2023-05-21T20:50:07.461Z,79.67
2023-05-21T20:52:10.530Z,79.74
2023-05-21T20:54:13.464Z,78.26
2023-05-21T20:56:29.835Z,78.07
2023-05-21T20:58:43.260Z,78.36
2023-05-21T21:00:46.909Z,78.15
2023-05-21T21:02:49.991Z,79.51
2023-05-21T21:04:54.163Z,79.39
2023-05-21T21:06:57.025Z,80.21
2023-05-21T21:08:59.999Z,79.05
2023-05-21T21:11:02.983Z,80.37
2023-05-21T21:13:07.548Z,79.55
2023-05-21T21:15:10.804Z,79.69
2023-05-21T21:17:13.748Z,80.22
2023-05-21T21:19:16.586Z,79.43
2023-05-21T21:21:19.688Z,78.53
2023-05-21T21:23:25.340Z,79.62
2023-05-21T21:25:28.261Z,79.64
2023-05-21T21:27:31.312Z,78.48
2023-05-21T21:29:35.876Z,79.65
2023-05-21T21:31:38.973Z,78.88
2023-05-21T21:33:42.140Z,79.41
2023-05-21T21:35:45.105Z,78.70
2023-05-21T21:37:48.115Z,80.39
2023-05-21T21:39:51.167Z,79.28
2023-05-21T21:41:54.199Z,78.86
2023-05-21T21:43:57.324Z,79.60
2023-05-21T21:46:01.873Z,79.80
2023-05-21T21:48:05.210Z,78.92
2023-05-21T21:50:09.177Z,78.89
2023-05-21T21:52:12.572Z,79.32
2023-05-21T21:54:15.595Z,80.21
2023-05-21T21:56:18.595Z,79.72
2023-05-21T21:58:21.906Z,79.26
2023-05-21T22:00:27.021Z,80.41
2023-05-21T22:02:31.456Z,80.04
2023-05-21T22:04:34.354Z,79.72
2023-05-21T22:06:39.297Z,79.78
2023-05-21T22:08:42.279Z,80.64
2023-05-21T22:10:45.847Z,79.43
2023-05-21T22:12:48.755Z,79.84
2023-05-21T22:14:51.777Z,80.96
2023-05-21T22:16:55.540Z,80.34
2023-05-21T22:19:00.240Z,79.57
2023-05-21T22:21:04.182Z,79.57
2023-05-21T22:23:07.197Z,78.93
2023-05-21T22:25:10.427Z,78.40
2023-05-21T22:27:13.595Z,78.42
2023-05-21T22:29:16.517Z,79.78
2023-05-21T22:31:19.669Z,79.68
2023-05-21T22:33:22.940Z,80.24
2023-05-21T22:35:27.399Z,79.00
2023-05-21T22:37:30.220Z,80.08
2023-05-21T22:39:33.225Z,80.02
2023-05-21T22:41:36.286Z,78.96
2023-05-21T22:43:39.293Z,80.04
2023-05-21T22:45:42.546Z,80.61
2023-05-21T22:47:45.690Z,81.05
2023-05-21T22:49:48.548Z,80.87
2023-05-21T22:51:54.634Z,80.71
2023-05-21T22:53:57.508Z,80.91
2023-05-21T22:56:00.868Z,80.46
2023-05-21T22:58:03.766Z,80.22
2023-05-21T23:00:08.097Z,79.99
2023-05-21T23:02:11.253Z,80.95
2023-05-21T23:04:15.492Z,80.36
2023-05-21T23:06:18.663Z,79.79
2023-05-21T23:08:23.109Z,80.90
2023-05-21T23:10:26.470Z,80.37
2023-05-21T23:12:29.582Z,81.02
2023-05-21T23:14:32.685Z,80.91
2023-05-21T23:16:35.677Z,81.14
2023-05-21T23:18:40.476Z,81.91
2023-05-21T23:20:44.008Z,81.57
2023-05-21T23:22:46.896Z,80.98
2023-05-21T23:24:51.740Z,81.14
2023-05-21T23:26:56.967Z,80.99
2023-05-21T23:28:59.869Z,80.99
2023-05-21T23:31:03.138Z,80.91
2023-05-21T23:33:06.901Z,81.53
2023-05-21T23:35:10.729Z,80.74
2023-05-21T23:37:13.774Z,80.67
2023-05-21T23:39:16.790Z,80.31
2023-05-21T23:41:21.393Z,81.10
2023-05-21T23:43:24.364Z,80.99
2023-05-21T23:45:27.417Z,81.35
2023-05-21T23:47:30.598Z,81.09
2023-05-21T23:49:33.677Z,81.53
2023-05-21T23:51:36.770Z,81.38
2023-05-21T23:53:39.777Z,81.89
2023-05-21T23:55:42.773Z,81.53
2023-05-21T23:57:47.121Z,81.39
2023-05-21T23:59:50.078Z,81.29
